KJRB/JRB METAR and TAF weather

Enter ICAO airport designator
Station Type Date Time Source
KJRB METAR 2022/06/18 02:56 UTC NOAA

KJRB 180256Z AUTO 00000KT 10SM CLR 26/13 A2964 RMK AO2 SLPNO T02610128 50004


Station Type Date Time Source
KJRB Decoded METAR 2022/06/18 02:56 UTC NOAA

Station name not available
Jun 17, 2022 - 10:56 PM EDT / 2022.06.18 0256 UTC
Wind: Calm:0
Visibility: 10 mile(s):0
Sky conditions: clear
Temperature: 79.0 F (26.1 C)
Dew Point: 55.0 F (12.8 C)
Relative Humidity: 43%
Pressure (altimeter): 29.64 in. Hg (1003 hPa)
Pressure tendency: 0.01 inches (0.4 hPa) higher than three hours ago
ob: KJRB 180256Z AUTO 00000KT 10SM CLR 26/13 A2964 RMK AO2 SLPNO T02610128 50004
cycle: 3

Station Type Date Time Source
KJRB TAF UTC NOAA

Error!

Example: see airport list